Time;durP1;ratioP1;P1;durP2;ratioP2;P2;SDS_P1;SDS_P2;PMS_P1;PMS_P2;Temp;Humidity;BMP_temperature;BMP_pressure;BME280_temperature;BME280_humidity;BME280_pressure;Samples;Min_cycle;Max_cycle;Signal;HPM_P1;HPM_P2
2022/01/05 00:01:22;;;;;;;5.53;2.90;;;;;;;;;;5089323;28;20180;-58
2022/01/05 00:03:48;;;;;;;5.00;3.13;;;;;;;;;;5089339;28;20192;-57
2022/01/05 00:06:14;;;;;;;8.23;3.10;;;;;;;;;;5090676;28;20639;-57
2022/01/05 00:08:40;;;;;;;3.53;2.93;;;;;;;;;;5072762;28;20680;-57
2022/01/05 00:11:07;;;;;;;10.43;3.10;;;;;;;;;;5089788;28;20227;-58
2022/01/05 00:13:33;;;;;;;6.53;2.70;;;;;;;;;;5089519;28;20640;-57
2022/01/05 00:15:59;;;;;;;3.87;3.03;;;;;;;;;;5089039;28;20574;-58
2022/01/05 00:18:25;;;;;;;4.60;3.03;;;;;;;;;;5088244;28;20697;-57
2022/01/05 00:20:51;;;;;;;7.10;3.20;;;;;;;;;;5090640;28;20639;-57
2022/01/05 00:23:17;;;;;;;8.73;3.40;;;;;;;;;;5089410;28;20687;-57
2022/01/05 00:25:44;;;;;;;6.87;3.17;;;;;;;;;;5088937;28;20650;-57
2022/01/05 00:28:10;;;;;;;6.33;2.63;;;;;;;;;;5089913;28;20259;-57
2022/01/05 00:30:36;;;;;;;3.57;2.50;;;;;;;;;;5088705;28;20290;-57
2022/01/05 00:33:02;;;;;;;2.73;2.40;;;;;;;;;;5089685;28;20176;-57
2022/01/05 00:35:28;;;;;;;3.77;2.40;;;;;;;;;;5086918;28;20172;-57
2022/01/05 00:37:54;;;;;;;7.63;3.00;;;;;;;;;;5082650;28;20262;-57
2022/01/05 00:40:20;;;;;;;3.87;2.17;;;;;;;;;;5089129;28;20210;-57
2022/01/05 00:42:46;;;;;;;4.63;2.57;;;;;;;;;;5090124;28;20180;-57
2022/01/05 00:45:13;;;;;;;4.10;1.73;;;;;;;;;;5089424;28;20233;-57
2022/01/05 00:47:39;;;;;;;3.60;2.07;;;;;;;;;;5088662;28;20276;-57
2022/01/05 00:50:05;;;;;;;7.67;2.33;;;;;;;;;;5087242;28;20212;-57
2022/01/05 00:52:32;;;;;;;5.47;1.77;;;;;;;;;;5084221;28;20184;-57
2022/01/05 00:54:58;;;;;;;3.60;1.50;;;;;;;;;;5067913;28;20223;-57
2022/01/05 00:57:24;;;;;;;7.63;2.40;;;;;;;;;;5068574;28;20203;-57
2022/01/05 00:59:50;;;;;;;4.27;1.70;;;;;;;;;;5068843;28;20558;-57
2022/01/05 01:02:16;;;;;;;3.87;1.83;;;;;;;;;;5048834;28;20251;-57
2022/01/05 01:04:42;;;;;;;5.83;1.73;;;;;;;;;;5067290;28;20603;-57
2022/01/05 01:07:08;;;;;;;3.07;1.73;;;;;;;;;;5068857;28;20643;-57
2022/01/05 01:09:34;;;;;;;3.77;1.87;;;;;;;;;;5071833;28;20219;-57
2022/01/05 01:12:00;;;;;;;8.93;2.30;;;;;;;;;;5069054;28;20196;-57
2022/01/05 01:14:26;;;;;;;4.77;2.10;;;;;;;;;;5068649;28;20185;-57
2022/01/05 01:16:52;;;;;;;7.83;3.20;;;;;;;;;;5067497;28;20187;-56
2022/01/05 01:19:18;;;;;;;6.40;3.33;;;;;;;;;;5068596;28;20200;-57
2022/01/05 01:21:44;;;;;;;4.53;3.43;;;;;;;;;;5066920;28;20742;-57
2022/01/05 01:24:10;;;;;;;6.83;3.93;;;;;;;;;;5066239;28;20517;-57
2022/01/05 01:26:36;;;;;;;5.50;3.97;;;;;;;;;;5068188;28;20169;-57
2022/01/05 01:29:02;;;;;;;8.50;4.67;;;;;;;;;;5068934;28;20223;-58
2022/01/05 01:31:28;;;;;;;6.90;4.43;;;;;;;;;;5066726;28;20310;-57
2022/01/05 01:33:55;;;;;;;5.70;4.37;;;;;;;;;;5068122;28;20183;-57
2022/01/05 01:36:21;;;;;;;8.77;3.87;;;;;;;;;;5068883;28;20191;-57
2022/01/05 01:38:47;;;;;;;10.45;4.57;;;;;;;;;;5066781;28;20434;-57
2022/01/05 01:41:13;;;;;;;6.77;4.07;;;;;;;;;;5068767;28;20605;-57
2022/01/05 01:43:39;;;;;;;6.53;3.43;;;;;;;;;;5067628;28;20676;-57
2022/01/05 01:46:08;;;;;;;8.47;3.37;;;;;;;;;;5067286;28;20215;-57
2022/01/05 01:48:34;;;;;;;5.10;3.57;;;;;;;;;;5067444;28;20202;-57
2022/01/05 01:51:00;;;;;;;7.30;3.30;;;;;;;;;;5068070;28;20184;-57
2022/01/05 01:53:26;;;;;;;4.93;3.20;;;;;;;;;;5068455;28;20220;-57
2022/01/05 01:55:53;;;;;;;5.47;3.30;;;;;;;;;;5094097;28;20188;-57
2022/01/05 01:58:20;;;;;;;5.40;3.43;;;;;;;;;;5090058;28;20241;-57
2022/01/05 02:00:46;;;;;;;4.93;3.13;;;;;;;;;;5087693;28;20661;-56
2022/01/05 02:03:14;;;;;;;7.67;3.13;;;;;;;;;;5088463;28;20331;-57
2022/01/05 02:05:40;;;;;;;4.03;2.70;;;;;;;;;;5093848;28;20190;-57
2022/01/05 02:08:06;;;;;;;11.97;3.13;;;;;;;;;;5090241;28;20504;-57
2022/01/05 02:10:32;;;;;;;5.20;3.13;;;;;;;;;;5088150;28;20248;-57
2022/01/05 02:12:58;;;;;;;6.17;2.80;;;;;;;;;;5090130;28;20271;-56
2022/01/05 02:15:25;;;;;;;11.97;3.20;;;;;;;;;;5090450;28;20282;-57
2022/01/05 02:20:30;;;;;;;4.37;3.30;;;;;;;;;;5086374;28;20227;-57
2022/01/05 02:22:56;;;;;;;7.03;3.40;;;;;;;;;;5095434;28;20163;-57
2022/01/05 02:25:22;;;;;;;8.10;4.40;;;;;;;;;;5096678;28;20171;-57
2022/01/05 02:27:50;;;;;;;12.97;3.90;;;;;;;;;;5088747;28;20183;-56
2022/01/05 02:30:22;;;;;;;11.77;5.93;;;;;;;;;;5071746;28;20264;-57
2022/01/05 02:32:49;;;;;;;6.33;4.40;;;;;;;;;;5085872;28;20230;-57
2022/01/05 02:35:15;;;;;;;6.43;4.20;;;;;;;;;;5094878;28;20176;-57
2022/01/05 02:37:46;;;;;;;7.90;4.70;;;;;;;;;;5080205;28;20194;-56
2022/01/05 02:40:13;;;;;;;13.13;5.03;;;;;;;;;;5093392;28;20563;-57
2022/01/05 02:42:39;;;;;;;10.60;5.30;;;;;;;;;;5085871;28;20180;-57
2022/01/05 02:45:06;;;;;;;8.60;5.40;;;;;;;;;;5089877;28;20187;-57
2022/01/05 02:47:32;;;;;;;8.23;4.43;;;;;;;;;;5085669;28;20187;-57
2022/01/05 02:49:58;;;;;;;9.60;5.30;;;;;;;;;;5096716;28;20244;-57
2022/01/05 02:52:24;;;;;;;7.80;5.60;;;;;;;;;;5084767;28;20190;-57
2022/01/05 02:54:50;;;;;;;12.43;5.67;;;;;;;;;;5074239;28;20231;-57
2022/01/05 02:57:16;;;;;;;14.10;5.83;;;;;;;;;;5067518;28;20671;-56
2022/01/05 02:59:42;;;;;;;9.03;4.97;;;;;;;;;;5074068;28;20203;-56
2022/01/05 03:02:09;;;;;;;8.23;5.27;;;;;;;;;;5065814;28;20225;-57
2022/01/05 03:04:35;;;;;;;8.13;4.73;;;;;;;;;;5066653;28;20279;-57
2022/01/05 03:07:01;;;;;;;11.63;5.27;;;;;;;;;;5067715;28;20177;-57
2022/01/05 03:09:27;;;;;;;9.93;5.50;;;;;;;;;;5073370;28;20214;-57
2022/01/05 03:11:53;;;;;;;11.83;5.23;;;;;;;;;;5072899;28;20224;-57
2022/01/05 03:14:20;;;;;;;7.60;5.13;;;;;;;;;;5066300;28;20215;-57
2022/01/05 03:16:46;;;;;;;7.27;5.50;;;;;;;;;;5065057;28;20192;-57
2022/01/05 03:19:12;;;;;;;14.40;6.43;;;;;;;;;;5067965;28;20542;-57
2022/01/05 03:21:38;;;;;;;9.23;6.33;;;;;;;;;;5082596;28;20177;-57
2022/01/05 03:24:04;;;;;;;14.03;7.53;;;;;;;;;;5072365;28;20180;-57
2022/01/05 03:26:30;;;;;;;12.47;5.93;;;;;;;;;;5072335;28;20176;-56
2022/01/05 03:28:57;;;;;;;8.70;6.30;;;;;;;;;;5072786;28;20176;-57
2022/01/05 03:31:23;;;;;;;11.10;6.30;;;;;;;;;;5075634;28;20203;-57
2022/01/05 03:33:49;;;;;;;12.17;5.80;;;;;;;;;;5079559;28;20210;-57
2022/01/05 03:36:15;;;;;;;11.97;5.50;;;;;;;;;;5055515;28;20184;-57
2022/01/05 03:38:41;;;;;;;14.77;6.87;;;;;;;;;;5080588;28;20192;-57
2022/01/05 03:41:07;;;;;;;10.13;6.10;;;;;;;;;;5068849;28;20172;-57
2022/01/05 03:43:33;;;;;;;7.97;5.10;;;;;;;;;;5076051;28;20180;-57
2022/01/05 03:45:59;;;;;;;11.00;5.83;;;;;;;;;;5067592;28;20185;-57
2022/01/05 03:48:25;;;;;;;10.70;5.03;;;;;;;;;;5070203;28;20183;-57
2022/01/05 03:50:51;;;;;;;10.37;5.37;;;;;;;;;;5072400;28;20665;-56
2022/01/05 03:53:17;;;;;;;10.57;5.30;;;;;;;;;;5068538;28;20218;-57
2022/01/05 03:55:44;;;;;;;8.23;4.77;;;;;;;;;;5069585;28;20713;-57
2022/01/05 03:58:11;;;;;;;9.00;4.27;;;;;;;;;;5053317;28;20173;-57
2022/01/05 04:00:41;;;;;;;7.40;4.47;;;;;;;;;;5068772;28;20207;-57
2022/01/05 04:03:07;;;;;;;8.40;4.30;;;;;;;;;;5060388;28;20584;-57
2022/01/05 04:05:33;;;;;;;6.93;3.60;;;;;;;;;;5070652;28;20180;-57
2022/01/05 04:07:59;;;;;;;8.27;3.30;;;;;;;;;;5070660;28;20655;-57
2022/01/05 04:10:25;;;;;;;7.60;3.13;;;;;;;;;;5068723;28;20238;-57
2022/01/05 04:12:52;;;;;;;8.50;3.40;;;;;;;;;;5051792;28;20187;-57
2022/01/05 04:15:18;;;;;;;5.70;3.47;;;;;;;;;;5068006;28;20251;-57
2022/01/05 04:17:44;;;;;;;8.00;3.57;;;;;;;;;;5069653;28;20556;-57
2022/01/05 04:20:12;;;;;;;4.37;2.30;;;;;;;;;;5059344;28;20209;-57
2022/01/05 04:22:38;;;;;;;5.57;2.77;;;;;;;;;;5063716;28;20545;-57
2022/01/05 04:25:04;;;;;;;10.67;3.30;;;;;;;;;;5068805;28;20173;-57
2022/01/05 04:27:30;;;;;;;5.37;2.87;;;;;;;;;;5062632;28;20173;-57
2022/01/05 04:29:56;;;;;;;7.73;2.57;;;;;;;;;;5068973;28;20185;-57
2022/01/05 04:32:22;;;;;;;5.10;2.50;;;;;;;;;;5068129;28;20188;-57
2022/01/05 04:34:49;;;;;;;8.23;3.03;;;;;;;;;;5069472;28;20216;-57
2022/01/05 04:37:15;;;;;;;6.80;2.33;;;;;;;;;;5069517;28;20192;-57
2022/01/05 04:39:41;;;;;;;6.07;2.67;;;;;;;;;;5050960;28;20678;-57
2022/01/05 04:42:07;;;;;;;5.70;2.33;;;;;;;;;;5069513;28;20291;-57
2022/01/05 04:44:33;;;;;;;5.47;2.70;;;;;;;;;;5072693;28;20206;-57
2022/01/05 04:46:59;;;;;;;7.17;2.70;;;;;;;;;;5067609;28;20177;-57
2022/01/05 04:49:25;;;;;;;10.27;4.30;;;;;;;;;;5069386;28;20690;-57
2022/01/05 04:51:51;;;;;;;7.97;3.17;;;;;;;;;;5050817;28;20893;-56
2022/01/05 04:54:17;;;;;;;11.83;4.20;;;;;;;;;;5071249;28;20235;-57
2022/01/05 04:56:43;;;;;;;11.77;4.47;;;;;;;;;;5083561;28;20199;-57
2022/01/05 04:59:10;;;;;;;7.10;3.60;;;;;;;;;;5068869;28;20202;-57
2022/01/05 05:01:36;;;;;;;10.40;3.70;;;;;;;;;;5066298;28;20200;-57
2022/01/05 05:04:02;;;;;;;7.60;2.90;;;;;;;;;;5067682;28;20542;-57
2022/01/05 05:06:28;;;;;;;4.47;2.80;;;;;;;;;;5088159;28;20176;-57
2022/01/05 05:08:54;;;;;;;7.90;3.13;;;;;;;;;;5074890;28;20698;-57
2022/01/05 05:11:20;;;;;;;5.73;3.30;;;;;;;;;;5069916;28;20462;-57
2022/01/05 05:13:46;;;;;;;4.60;3.20;;;;;;;;;;5073139;28;20184;-57
2022/01/05 05:16:12;;;;;;;6.80;3.50;;;;;;;;;;5073842;28;20188;-57
2022/01/05 05:18:38;;;;;;;7.27;3.43;;;;;;;;;;5069068;28;20200;-57
2022/01/05 05:21:04;;;;;;;11.23;4.27;;;;;;;;;;5088602;28;20524;-57
2022/01/05 05:23:30;;;;;;;13.00;4.40;;;;;;;;;;5083586;28;20176;-57
2022/01/05 05:25:56;;;;;;;5.73;4.20;;;;;;;;;;5073120;28;20187;-57
2022/01/05 05:28:22;;;;;;;9.57;4.27;;;;;;;;;;5068541;28;21869;-57
2022/01/05 05:30:48;;;;;;;7.67;4.03;;;;;;;;;;5070172;28;20173;-57
2022/01/05 05:33:14;;;;;;;7.67;4.17;;;;;;;;;;5076247;28;20187;-57
2022/01/05 05:35:41;;;;;;;6.73;3.37;;;;;;;;;;5067822;28;20181;-57
2022/01/05 05:38:08;;;;;;;8.37;3.20;;;;;;;;;;5066381;28;20606;-57
2022/01/05 05:40:34;;;;;;;12.33;3.27;;;;;;;;;;5068029;28;20311;-57
2022/01/05 05:43:00;;;;;;;9.03;3.77;;;;;;;;;;5067235;28;20567;-57
2022/01/05 05:45:26;;;;;;;7.60;2.70;;;;;;;;;;5067930;28;20252;-57
2022/01/05 05:47:53;;;;;;;5.70;3.07;;;;;;;;;;5066414;28;20263;-57
2022/01/05 05:50:19;;;;;;;10.13;3.43;;;;;;;;;;5076129;28;20217;-57
2022/01/05 05:52:45;;;;;;;6.33;2.73;;;;;;;;;;5071242;28;20176;-57
2022/01/05 05:55:11;;;;;;;4.10;2.53;;;;;;;;;;5087649;28;20274;-57
2022/01/05 05:57:37;;;;;;;7.17;3.37;;;;;;;;;;5085834;28;20200;-57
2022/01/05 06:00:07;;;;;;;6.40;3.50;;;;;;;;;;5087973;28;20269;-57
2022/01/05 06:02:33;;;;;;;6.03;2.90;;;;;;;;;;5084886;28;20630;-57
2022/01/05 06:04:59;;;;;;;7.17;3.27;;;;;;;;;;5085560;28;20172;-57
2022/01/05 06:07:25;;;;;;;5.87;2.70;;;;;;;;;;5086026;28;20212;-57
2022/01/05 06:09:51;;;;;;;6.47;3.57;;;;;;;;;;5074516;28;20244;-57
2022/01/05 06:12:17;;;;;;;7.70;3.60;;;;;;;;;;5078262;28;20258;-57
2022/01/05 06:14:43;;;;;;;8.27;2.97;;;;;;;;;;5085606;28;20188;-56
2022/01/05 06:17:09;;;;;;;6.63;3.27;;;;;;;;;;5085728;28;20258;-57
2022/01/05 06:19:35;;;;;;;5.97;3.07;;;;;;;;;;5085743;28;20195;-57
2022/01/05 06:22:02;;;;;;;7.77;3.00;;;;;;;;;;5087006;28;20719;-57
2022/01/05 06:24:28;;;;;;;13.93;4.17;;;;;;;;;;5085246;28;20179;-57
2022/01/05 06:26:54;;;;;;;7.70;4.00;;;;;;;;;;5086374;28;20249;-58
2022/01/05 06:29:20;;;;;;;8.33;3.27;;;;;;;;;;5085659;28;20939;-57
2022/01/05 06:31:46;;;;;;;8.40;3.33;;;;;;;;;;5085297;28;20521;-57
2022/01/05 06:34:12;;;;;;;9.23;2.63;;;;;;;;;;5085345;28;20203;-58
2022/01/05 06:36:39;;;;;;;9.53;2.67;;;;;;;;;;5087138;28;20183;-58
2022/01/05 06:39:05;;;;;;;10.00;3.53;;;;;;;;;;5085419;28;20215;-57
2022/01/05 06:41:31;;;;;;;10.50;2.93;;;;;;;;;;5086024;28;20186;-57
2022/01/05 06:43:57;;;;;;;5.50;2.63;;;;;;;;;;5086018;28;20186;-57
2022/01/05 06:46:23;;;;;;;7.37;2.70;;;;;;;;;;5067417;28;20171;-57
2022/01/05 06:48:50;;;;;;;8.67;3.13;;;;;;;;;;5084741;28;20225;-57
2022/01/05 06:51:16;;;;;;;4.80;2.67;;;;;;;;;;5064683;28;20172;-57
2022/01/05 06:53:42;;;;;;;5.80;3.03;;;;;;;;;;5084441;28;20729;-57
2022/01/05 06:56:08;;;;;;;6.33;3.03;;;;;;;;;;5085032;28;20195;-57
2022/01/05 06:58:34;;;;;;;8.33;3.57;;;;;;;;;;5066537;28;20183;-57
2022/01/05 07:01:00;;;;;;;8.80;2.90;;;;;;;;;;5070962;28;20176;-57
2022/01/05 07:03:26;;;;;;;7.63;2.97;;;;;;;;;;5075207;28;20180;-57
2022/01/05 07:05:52;;;;;;;6.10;2.93;;;;;;;;;;5048830;28;20183;-58
2022/01/05 07:08:19;;;;;;;6.03;2.40;;;;;;;;;;5066780;28;20180;-57
2022/01/05 07:10:45;;;;;;;8.37;2.70;;;;;;;;;;5066690;28;20722;-57
2022/01/05 07:13:11;;;;;;;8.20;2.53;;;;;;;;;;5066343;28;20185;-57
2022/01/05 07:15:37;;;;;;;10.73;2.67;;;;;;;;;;5062005;28;20188;-57
2022/01/05 07:18:04;;;;;;;11.07;2.80;;;;;;;;;;5064555;28;20667;-57
2022/01/05 07:20:30;;;;;;;6.10;3.03;;;;;;;;;;5066196;28;20438;-58
2022/01/05 07:22:56;;;;;;;5.20;2.67;;;;;;;;;;5067166;28;20180;-57
2022/01/05 07:25:22;;;;;;;7.10;2.87;;;;;;;;;;5065402;28;20652;-58
2022/01/05 07:27:48;;;;;;;5.20;2.53;;;;;;;;;;5066651;28;20231;-57
2022/01/05 07:30:14;;;;;;;8.17;2.90;;;;;;;;;;5066369;28;20271;-57
2022/01/05 07:32:40;;;;;;;6.00;2.50;;;;;;;;;;5063989;28;20184;-57
2022/01/05 07:35:07;;;;;;;7.47;2.60;;;;;;;;;;5048389;28;20208;-57
2022/01/05 07:37:35;;;;;;;7.13;3.23;;;;;;;;;;5048485;28;20208;-57
2022/01/05 07:40:01;;;;;;;7.07;2.63;;;;;;;;;;5065941;28;20607;-57
2022/01/05 07:42:30;;;;;;;5.63;2.90;;;;;;;;;;5065720;28;20679;-57
2022/01/05 07:44:57;;;;;;;8.10;2.90;;;;;;;;;;5066006;28;20711;-57
2022/01/05 07:47:23;;;;;;;8.20;2.90;;;;;;;;;;5047827;28;20184;-57
2022/01/05 07:49:49;;;;;;;13.87;3.40;;;;;;;;;;5049937;28;20188;-57
2022/01/05 07:52:15;;;;;;;4.33;2.43;;;;;;;;;;5065506;28;20190;-57
2022/01/05 07:54:41;;;;;;;8.07;3.43;;;;;;;;;;5060590;28;20342;-57
2022/01/05 07:57:07;;;;;;;6.13;2.93;;;;;;;;;;5066605;28;20286;-57
2022/01/05 07:59:33;;;;;;;7.07;2.87;;;;;;;;;;5066601;28;20255;-57
2022/01/05 08:01:59;;;;;;;7.50;2.83;;;;;;;;;;5046416;28;20180;-57
2022/01/05 08:04:25;;;;;;;5.60;2.90;;;;;;;;;;5064632;28;20566;-57
2022/01/05 08:06:51;;;;;;;6.27;3.00;;;;;;;;;;5067792;28;20180;-57
2022/01/05 08:09:24;;;;;;;6.43;2.90;;;;;;;;;;5070756;28;20202;-56
2022/01/05 08:11:50;;;;;;;8.40;3.10;;;;;;;;;;5073562;28;20280;-57
2022/01/05 08:14:16;;;;;;;4.03;3.10;;;;;;;;;;5069746;28;20631;-56
2022/01/05 08:16:42;;;;;;;10.60;3.33;;;;;;;;;;5069480;28;20710;-57
2022/01/05 08:19:08;;;;;;;6.97;3.10;;;;;;;;;;5069018;28;20579;-57
2022/01/05 08:21:34;;;;;;;6.73;3.20;;;;;;;;;;5068766;28;20184;-57
2022/01/05 08:24:00;;;;;;;4.93;2.63;;;;;;;;;;5070882;28;20693;-57
2022/01/05 08:26:26;;;;;;;5.07;2.70;;;;;;;;;;5069072;28;20267;-57
2022/01/05 08:28:53;;;;;;;10.53;3.33;;;;;;;;;;5069385;28;20260;-57
2022/01/05 08:31:19;;;;;;;9.87;3.20;;;;;;;;;;5068596;28;20275;-57
2022/01/05 08:33:45;;;;;;;11.23;2.90;;;;;;;;;;5068028;28;20247;-57
2022/01/05 08:36:11;;;;;;;5.60;2.77;;;;;;;;;;5068648;28;20196;-57
2022/01/05 08:38:37;;;;;;;5.50;3.27;;;;;;;;;;5069552;28;20184;-56
2022/01/05 08:41:03;;;;;;;8.00;2.90;;;;;;;;;;5051667;28;20184;-57
2022/01/05 08:43:31;;;;;;;8.93;3.53;;;;;;;;;;5069077;28;20218;-57
2022/01/05 08:45:57;;;;;;;9.90;3.53;;;;;;;;;;5068988;28;20666;-56
2022/01/05 08:48:23;;;;;;;9.97;3.33;;;;;;;;;;5069102;28;20218;-57
2022/01/05 08:50:51;;;;;;;9.93;2.67;;;;;;;;;;5066792;28;20180;-57
2022/01/05 08:53:17;;;;;;;9.63;3.07;;;;;;;;;;5070253;28;20881;-57
2022/01/05 08:55:48;;;;;;;6.90;2.80;;;;;;;;;;5087938;28;20194;-57
2022/01/05 08:58:15;;;;;;;9.00;3.43;;;;;;;;;;5083653;28;20179;-57
2022/01/05 09:00:41;;;;;;;9.33;3.33;;;;;;;;;;5085910;28;20292;-57
2022/01/05 09:03:10;;;;;;;8.10;3.53;;;;;;;;;;5086207;28;20176;-57
2022/01/05 09:05:36;;;;;;;7.77;3.20;;;;;;;;;;5084853;28;20241;-57
2022/01/05 09:08:03;;;;;;;11.60;3.63;;;;;;;;;;5086850;28;20428;-57
2022/01/05 09:10:29;;;;;;;5.80;2.73;;;;;;;;;;5084601;28;20180;-58
2022/01/05 09:12:56;;;;;;;15.80;4.00;;;;;;;;;;5086021;28;20543;-57
2022/01/05 09:15:22;;;;;;;13.13;3.60;;;;;;;;;;5062805;28;20189;-57
2022/01/05 09:17:48;;;;;;;11.10;3.10;;;;;;;;;;5083049;28;20172;-58
2022/01/05 09:20:15;;;;;;;10.00;3.37;;;;;;;;;;5085584;28;20675;-58
2022/01/05 09:22:41;;;;;;;6.97;2.77;;;;;;;;;;5087994;28;20184;-58
2022/01/05 09:25:09;;;;;;;8.27;3.93;;;;;;;;;;5086375;28;20191;-57
2022/01/05 09:27:35;;;;;;;12.17;4.43;;;;;;;;;;5075894;28;20713;-58
2022/01/05 09:30:02;;;;;;;13.37;4.50;;;;;;;;;;5085201;28;20184;-58
2022/01/05 09:32:31;;;;;;;9.87;3.43;;;;;;;;;;5087567;28;20266;-57
2022/01/05 09:34:57;;;;;;;8.20;3.80;;;;;;;;;;5069838;28;20209;-57
2022/01/05 09:37:31;;;;;;;8.30;3.70;;;;;;;;;;5088290;28;20504;-57
2022/01/05 09:42:42;;;;;;;8.60;4.40;;;;;;;;;;5088214;28;20702;-57
2022/01/05 09:45:19;;;;;;;5.63;3.77;;;;;;;;;;5086546;28;20172;-57
2022/01/05 09:48:04;;;;;;;11.77;4.55;;;;;;;;;;5087017;28;20439;-57
2022/01/05 09:50:31;;;;;;;10.57;4.67;;;;;;;;;;5086258;28;20237;-57
2022/01/05 09:52:58;;;;;;;11.52;5.47;;;;;;;;;;5085149;28;20452;-57
2022/01/05 09:55:24;;;;;;;9.67;4.80;;;;;;;;;;5074132;28;20176;-59
2022/01/05 09:57:50;;;;;;;14.67;5.63;;;;;;;;;;5082515;28;20674;-57
2022/01/05 10:00:17;;;;;;;12.63;5.03;;;;;;;;;;5082854;28;20235;-57
2022/01/05 10:02:45;;;;;;;7.87;4.33;;;;;;;;;;5081699;28;20187;-57
2022/01/05 10:05:12;;;;;;;7.53;4.57;;;;;;;;;;5086197;28;20797;-57
2022/01/05 10:07:39;;;;;;;7.00;4.50;;;;;;;;;;5087963;28;20313;-57
2022/01/05 10:10:05;;;;;;;15.80;4.77;;;;;;;;;;5078226;28;20184;-57
2022/01/05 10:12:31;;;;;;;10.47;4.20;;;;;;;;;;5083693;28;20215;-57
2022/01/05 10:14:58;;;;;;;9.03;4.00;;;;;;;;;;5084165;28;20201;-57
2022/01/05 10:17:29;;;;;;;10.93;4.87;;;;;;;;;;5084894;28;20635;-57
2022/01/05 10:19:56;;;;;;;12.90;5.30;;;;;;;;;;5070643;28;20208;-57
2022/01/05 10:22:41;;;;;;;12.07;4.73;;;;;;;;;;5082689;28;20198;-57
2022/01/05 10:25:15;;;;;;;14.60;4.43;;;;;;;;;;5083743;28;20576;-58
2022/01/05 10:27:54;;;;;;;7.20;4.33;;;;;;;;;;5081609;28;20528;-58
2022/01/05 10:30:20;;;;;;;9.10;4.83;;;;;;;;;;5083642;28;20212;-58
2022/01/05 10:32:46;;;;;;;10.27;5.10;;;;;;;;;;5086480;28;20806;-58
2022/01/05 10:35:12;;;;;;;13.00;5.70;;;;;;;;;;5085445;28;20631;-59
2022/01/05 10:37:43;;;;;;;9.47;6.07;;;;;;;;;;5082345;28;20192;-58
2022/01/05 10:40:11;;;;;;;15.57;6.60;;;;;;;;;;5086595;28;20729;-58
2022/01/05 10:42:38;;;;;;;10.30;5.70;;;;;;;;;;5086544;28;20654;-57
2022/01/05 10:45:06;;;;;;;18.00;6.07;;;;;;;;;;5068387;28;20746;-58
2022/01/05 10:47:33;;;;;;;14.73;6.80;;;;;;;;;;5069851;28;20184;-58
2022/01/05 10:49:59;;;;;;;14.70;6.97;;;;;;;;;;5088631;28;20186;-57
2022/01/05 10:52:33;;;;;;;14.60;6.77;;;;;;;;;;5082522;28;20539;-57
2022/01/05 10:55:10;;;;;;;12.07;6.33;;;;;;;;;;5062415;28;20224;-57
2022/01/05 10:57:36;;;;;;;12.73;6.30;;;;;;;;;;5046481;28;20207;-57
2022/01/05 11:00:05;;;;;;;15.57;5.80;;;;;;;;;;5065263;28;20697;-57
2022/01/05 11:02:32;;;;;;;11.73;5.43;;;;;;;;;;5063471;28;20211;-57
2022/01/05 11:05:08;;;;;;;7.10;4.13;;;;;;;;;;5065465;28;20697;-57
2022/01/05 11:07:37;;;;;;;8.87;4.13;;;;;;;;;;5062092;28;20186;-57
2022/01/05 11:10:09;;;;;;;12.43;4.77;;;;;;;;;;5064594;28;20195;-57
2022/01/05 11:12:43;;;;;;;8.13;4.60;;;;;;;;;;5065917;28;20188;-57
2022/01/05 11:15:24;;;;;;;15.97;6.83;;;;;;;;;;5063556;28;20180;-57
2022/01/05 11:18:13;;;;;;;8.03;4.97;;;;;;;;;;5061695;28;20654;-57
2022/01/05 11:20:39;;;;;;;11.90;5.53;;;;;;;;;;5071310;28;20183;-57
2022/01/05 11:23:06;;;;;;;9.33;5.07;;;;;;;;;;5066677;28;20181;-57
2022/01/05 11:25:34;;;;;;;13.43;5.60;;;;;;;;;;5062770;28;20184;-57
2022/01/05 11:28:00;;;;;;;10.33;5.47;;;;;;;;;;5053525;28;20574;-57
2022/01/05 11:30:26;;;;;;;15.00;6.27;;;;;;;;;;5066627;28;20233;-57
2022/01/05 11:32:52;;;;;;;15.73;5.67;;;;;;;;;;5065666;28;20669;-57
2022/01/05 11:35:18;;;;;;;16.20;5.93;;;;;;;;;;5065840;28;20184;-58
2022/01/05 11:37:46;;;;;;;16.37;6.93;;;;;;;;;;5047966;28;20716;-57
2022/01/05 11:40:13;;;;;;;13.47;6.30;;;;;;;;;;5065741;28;20192;-57
2022/01/05 11:42:40;;;;;;;12.00;6.00;;;;;;;;;;5066311;28;20454;-57
2022/01/05 11:45:07;;;;;;;9.27;4.73;;;;;;;;;;5069074;28;20185;-57
2022/01/05 11:47:36;;;;;;;13.57;6.07;;;;;;;;;;5068879;28;20184;-57
2022/01/05 11:50:14;;;;;;;15.73;6.13;;;;;;;;;;5068437;28;20730;-57
2022/01/05 11:53:01;;;;;;;16.23;7.03;;;;;;;;;;5071288;28;20799;-57
2022/01/05 11:55:28;;;;;;;12.13;6.07;;;;;;;;;;5070028;28;20630;-57
2022/01/05 11:58:13;;;;;;;12.70;5.77;;;;;;;;;;5077708;28;20200;-57
2022/01/05 12:00:39;;;;;;;10.73;6.17;;;;;;;;;;5071371;28;20204;-57
2022/01/05 12:03:05;;;;;;;14.93;5.53;;;;;;;;;;5070739;28;20216;-57
2022/01/05 12:05:49;;;;;;;18.97;6.30;;;;;;;;;;5057443;28;20177;-57
2022/01/05 12:08:34;;;;;;;13.20;5.43;;;;;;;;;;5050434;28;20639;-57
2022/01/05 12:11:01;;;;;;;10.20;5.33;;;;;;;;;;5068842;28;20176;-57
2022/01/05 12:13:37;;;;;;;10.17;5.57;;;;;;;;;;5078545;28;20218;-57
2022/01/05 12:16:04;;;;;;;15.17;5.83;;;;;;;;;;5067638;28;20270;-57
2022/01/05 12:18:30;;;;;;;10.63;5.07;;;;;;;;;;5061416;28;20189;-57
2022/01/05 12:20:58;;;;;;;14.63;6.40;;;;;;;;;;5057669;28;20258;-57
2022/01/05 12:23:28;;;;;;;11.63;5.07;;;;;;;;;;5065872;28;20181;-57
2022/01/05 12:26:07;;;;;;;11.53;4.50;;;;;;;;;;5088525;28;20180;-57
2022/01/05 12:28:42;;;;;;;12.07;4.90;;;;;;;;;;5073519;28;20180;-57
2022/01/05 12:31:12;;;;;;;14.93;4.90;;;;;;;;;;5065439;28;20646;-57
2022/01/05 12:33:42;;;;;;;13.10;4.60;;;;;;;;;;5067473;28;20322;-57
2022/01/05 12:36:08;;;;;;;19.93;4.77;;;;;;;;;;5069213;28;20168;-57
2022/01/05 12:38:41;;;;;;;9.43;4.33;;;;;;;;;;5067778;28;20467;-57
2022/01/05 12:41:26;;;;;;;14.00;4.20;;;;;;;;;;5069203;28;20184;-57
2022/01/05 12:43:53;;;;;;;11.23;3.50;;;;;;;;;;5069274;28;20325;-57
2022/01/05 12:46:34;;;;;;;10.03;3.57;;;;;;;;;;5066781;28;20259;-57
2022/01/05 12:49:02;;;;;;;5.17;3.33;;;;;;;;;;5055668;28;20185;-57
2022/01/05 12:51:31;;;;;;;8.30;3.20;;;;;;;;;;5059882;28;20509;-58
2022/01/05 12:54:00;;;;;;;12.10;3.93;;;;;;;;;;5068322;28;20566;-58
2022/01/05 12:56:28;;;;;;;10.20;2.93;;;;;;;;;;5087423;28;20273;-58
2022/01/05 12:58:56;;;;;;;9.10;2.80;;;;;;;;;;5083689;28;20176;-58
2022/01/05 13:01:23;;;;;;;14.10;3.63;;;;;;;;;;5089518;28;20168;-58
2022/01/05 13:03:49;;;;;;;11.13;4.63;;;;;;;;;;5093529;28;20177;-57
2022/01/05 13:06:25;;;;;;;9.63;3.47;;;;;;;;;;5092645;28;20176;-58
2022/01/05 13:08:56;;;;;;;9.00;4.07;;;;;;;;;;5089081;28;20163;-57
2022/01/05 13:11:42;;;;;;;15.30;4.43;;;;;;;;;;5081046;28;20176;-58
2022/01/05 13:14:28;;;;;;;8.20;4.00;;;;;;;;;;5068247;28;20160;-58
2022/01/05 13:16:56;;;;;;;8.43;3.87;;;;;;;;;;5082309;28;20183;-58
2022/01/05 13:19:33;;;;;;;16.03;4.20;;;;;;;;;;5068395;28;20662;-58
2022/01/05 13:22:01;;;;;;;7.17;3.83;;;;;;;;;;5085386;28;20197;-58
2022/01/05 13:24:45;;;;;;;11.80;4.00;;;;;;;;;;5087091;28;20246;-58
2022/01/05 13:27:11;;;;;;;10.83;3.93;;;;;;;;;;5079876;28;20176;-58
2022/01/05 13:29:38;;;;;;;12.20;4.63;;;;;;;;;;5085146;28;20179;-58
2022/01/05 13:32:06;;;;;;;10.47;4.73;;;;;;;;;;5066051;28;20671;-58
2022/01/05 13:34:36;;;;;;;8.77;3.93;;;;;;;;;;5069073;28;20192;-58
2022/01/05 13:37:03;;;;;;;9.90;4.17;;;;;;;;;;5086776;28;20192;-58
2022/01/05 13:39:39;;;;;;;11.87;5.10;;;;;;;;;;5086019;28;20246;-58
2022/01/05 13:42:06;;;;;;;8.90;4.13;;;;;;;;;;5081380;28;20256;-57
2022/01/05 13:44:32;;;;;;;10.53;4.07;;;;;;;;;;5082607;28;20233;-57
2022/01/05 13:46:58;;;;;;;10.70;3.80;;;;;;;;;;5076803;28;20176;-58
2022/01/05 13:49:25;;;;;;;9.83;3.97;;;;;;;;;;5086936;28;20706;-57
2022/01/05 13:52:21;;;;;;;14.50;4.93;;;;;;;;;;5084984;28;20175;-58
2022/01/05 13:54:47;;;;;;;9.10;4.30;;;;;;;;;;5050306;28;20211;-57
2022/01/05 13:57:29;;;;;;;12.00;4.77;;;;;;;;;;5082603;28;21231;-57
2022/01/05 13:59:59;;;;;;;9.63;3.53;;;;;;;;;;5075302;28;20212;-57
2022/01/05 14:02:27;;;;;;;6.03;3.47;;;;;;;;;;5087075;28;20184;-57
2022/01/05 14:04:54;;;;;;;6.07;3.23;;;;;;;;;;5066318;28;20184;-57
2022/01/05 14:07:22;;;;;;;6.03;2.50;;;;;;;;;;5087720;28;20247;-57
2022/01/05 14:10:07;;;;;;;9.37;3.60;;;;;;;;;;5084593;28;20491;-57
2022/01/05 14:12:35;;;;;;;8.70;2.90;;;;;;;;;;5085824;28;20187;-58
2022/01/05 14:15:01;;;;;;;6.60;2.67;;;;;;;;;;5069811;28;20777;-58
2022/01/05 14:17:28;;;;;;;8.73;3.20;;;;;;;;;;5069229;28;20219;-57
2022/01/05 14:20:17;;;;;;;8.67;3.03;;;;;;;;;;5087004;28;20203;-57
2022/01/05 14:22:44;;;;;;;12.97;3.70;;;;;;;;;;5084787;28;20168;-57
2022/01/05 14:25:10;;;;;;;6.60;2.97;;;;;;;;;;5085839;28;20225;-57
2022/01/05 14:27:37;;;;;;;13.50;3.63;;;;;;;;;;5087719;28;20168;-58
2022/01/05 14:30:05;;;;;;;6.07;3.30;;;;;;;;;;5085487;28;20665;-57
2022/01/05 14:32:33;;;;;;;10.20;3.97;;;;;;;;;;5084125;28;20270;-58
2022/01/05 14:35:00;;;;;;;13.87;4.13;;;;;;;;;;5088177;28;20602;-57
2022/01/05 14:37:26;;;;;;;13.60;4.03;;;;;;;;;;5068751;28;20220;-57
2022/01/05 14:39:54;;;;;;;14.50;4.10;;;;;;;;;;5085600;28;20666;-58
2022/01/05 14:42:21;;;;;;;8.23;3.73;;;;;;;;;;5088041;28;20179;-57
2022/01/05 14:44:48;;;;;;;10.83;3.83;;;;;;;;;;5087153;28;20171;-57
2022/01/05 14:47:22;;;;;;;5.60;3.10;;;;;;;;;;5087664;28;20642;-57